Wetterdaten: Donnerstag, 28.01.2010
Datum Zeit Temp. A. Feuchte A. Luftdruck Regen Wind Richtung Richtung Sonnenschein UV Solar Windben
28.01.2010 00:00 -0,7 C 92 % 1005,4 hPa 0,0 mm 12,9 km/h (3 Bft) W 270 0 min 0 UV-I 0 W/m 32,2 km/h (5 Bft)
28.01.2010 00:10 -0,6 C 92 % 1005,1 hPa 0,0 mm 12,9 km/h (3 Bft) W-SW 247 0 min 0 UV-I 0 W/m 29,0 km/h (5 Bft)
28.01.2010 00:20 -0,4 C 92 % 1004,9 hPa 0,0 mm 14,5 km/h (3 Bft) W 270 0 min 0 UV-I 0 W/m 33,8 km/h (5 Bft)
28.01.2010 00:30 -0,4 C 92 % 1004,6 hPa 0,0 mm 11,3 km/h (2 Bft) W-SW 247 0 min 0 UV-I 0 W/m 29,0 km/h (5 Bft)
28.01.2010 00:40 -0,3 C 92 % 1004,4 hPa 0,0 mm 12,9 km/h (3 Bft) W-SW 247 0 min 0 UV-I 0 W/m 29,0 km/h (5 Bft)
28.01.2010 00:50 -0,2 C 92 % 1004,2 hPa 0,0 mm 11,3 km/h (2 Bft) W 270 0 min 0 UV-I 0 W/m 35,4 km/h (5 Bft)
28.01.2010 01:00 -0,1 C 92 % 1004,1 hPa 0,0 mm 9,7 km/h (2 Bft) W 270 0 min 0 UV-I 0 W/m 25,7 km/h (4 Bft)
28.01.2010 01:10 -0,1 C 92 % 1004,0 hPa 0,0 mm 11,3 km/h (2 Bft) W-SW 247 0 min 0 UV-I 0 W/m 29,0 km/h (5 Bft)
28.01.2010 01:20 0,0 C 92 % 1003,7 hPa 0,0 mm 9,7 km/h (2 Bft) W-SW 247 0 min 0 UV-I 0 W/m 22,5 km/h (4 Bft)
28.01.2010 01:30 0,1 C 92 % 1003,6 hPa 0,0 mm 12,9 km/h (3 Bft) W-SW 247 0 min 0 UV-I 0 W/m 29,0 km/h (5 Bft)
28.01.2010 01:40 0,3 C 92 % 1003,5 hPa 0,0 mm 12,9 km/h (3 Bft) W-SW 247 0 min 0 UV-I 0 W/m 30,6 km/h (5 Bft)
28.01.2010 01:50 0,4 C 92 % 1003,3 hPa 0,0 mm 12,9 km/h (3 Bft) SW 225 0 min 0 UV-I 0 W/m 27,4 km/h (4 Bft)
28.01.2010 02:00 0,5 C 92 % 1003,3 hPa 0,0 mm 11,3 km/h (2 Bft) W-SW 247 0 min 0 UV-I 0 W/m 25,7 km/h (4 Bft)
28.01.2010 02:10 0,6 C 92 % 1003,2 hPa 0,0 mm 9,7 km/h (2 Bft) W-SW 247 0 min 0 UV-I 0 W/m 25,7 km/h (4 Bft)
28.01.2010 02:20 0,6 C 92 % 1003,3 hPa 0,0 mm 9,7 km/h (2 Bft) W 270 0 min 0 UV-I 0 W/m 29,0 km/h (5 Bft)
28.01.2010 02:30 0,7 C 92 % 1003,1 hPa 0,0 mm 9,7 km/h (2 Bft) W 270 0 min 0 UV-I 0 W/m 25,7 km/h (4 Bft)
28.01.2010 02:40 0,7 C 92 % 1003,0 hPa 0,0 mm 8,0 km/h (2 Bft) W-SW 247 0 min 0 UV-I 0 W/m 25,7 km/h (4 Bft)
28.01.2010 02:50 0,7 C 92 % 1003,0 hPa 0,0 mm 8,0 km/h (2 Bft) W 270 0 min 0 UV-I 0 W/m 20,9 km/h (4 Bft)
28.01.2010 03:00 0,8 C 92 % 1003,1 hPa 0,0 mm 8,0 km/h (2 Bft) W 270 0 min 0 UV-I 0 W/m 20,9 km/h (4 Bft)
28.01.2010 03:10 0,9 C 93 % 1003,0 hPa 0,0 mm 6,4 km/h (2 Bft) W 270 0 min 0 UV-I 0 W/m 24,1 km/h (4 Bft)
28.01.2010 03:20 1,0 C 93 % 1003,1 hPa 0,0 mm 4,8 km/h (1 Bft) W 270 0 min 0 UV-I 0 W/m 19,3 km/h (3 Bft)
28.01.2010 03:30 1,1 C 93 % 1003,0 hPa 0,0 mm 4,8 km/h (1 Bft) W 270 0 min 0 UV-I 0 W/m 16,1 km/h (3 Bft)
28.01.2010 03:40 1,2 C 93 % 1002,7 hPa 0,0 mm 6,4 km/h (2 Bft) W 270 0 min 0 UV-I 0 W/m 16,1 km/h (3 Bft)
28.01.2010 03:50 1,3 C 93 % 1002,8 hPa 0,0 mm 8,0 km/h (2 Bft) W 270 0 min 0 UV-I 0 W/m 20,9 km/h (4 Bft)
28.01.2010 04:00 1,3 C 93 % 1002,9 hPa 0,3 mm 6,4 km/h (2 Bft) W 270 0 min 0 UV-I 0 W/m 17,7 km/h (3 Bft)
28.01.2010 04:10 1,3 C 93 % 1003,0 hPa 0,0 mm 6,4 km/h (2 Bft) W 270 0 min 0 UV-I 0 W/m 16,1 km/h (3 Bft)
28.01.2010 04:20 1,3 C 93 % 1003,3 hPa 0,0 mm 4,8 km/h (1 Bft) W-NW 292 0 min 0 UV-I 0 W/m 11,3 km/h (2 Bft)
28.01.2010 04:30 1,3 C 93 % 1003,3 hPa 0,0 mm 3,2 km/h (1 Bft) W-NW 292 0 min 0 UV-I 0 W/m 14,5 km/h (3 Bft)
28.01.2010 04:40 1,3 C 93 % 1003,4 hPa 0,3 mm 4,8 km/h (1 Bft) W-NW 292 0 min 0 UV-I 0 W/m 16,1 km/h (3 Bft)
28.01.2010 04:50 1,3 C 93 % 1003,3 hPa 0,0 mm 3,2 km/h (1 Bft) W-NW 292 0 min 0 UV-I 0 W/m 12,9 km/h (3 Bft)
28.01.2010 05:00 1,3 C 93 % 1003,4 hPa 0,3 mm 6,4 km/h (2 Bft) W 270 0 min 0 UV-I 0 W/m 16,1 km/h (3 Bft)
28.01.2010 05:10 1,3 C 93 % 1003,4 hPa 0,0 mm 8,0 km/h (2 Bft) W 270 0 min 0 UV-I 0 W/m 19,3 km/h (3 Bft)
28.01.2010 05:20 1,3 C 93 % 1003,4 hPa 0,3 mm 6,4 km/h (2 Bft) W 270 0 min 0 UV-I 0 W/m 20,9 km/h (4 Bft)
28.01.2010 05:30 1,3 C 93 % 1003,4 hPa 0,0 mm 8,0 km/h (2 Bft) W 270 0 min 0 UV-I 0 W/m 22,5 km/h (4 Bft)
28.01.2010 05:40 1,3 C 93 % 1003,5 hPa 0,3 mm 6,4 km/h (2 Bft) W 270 0 min 0 UV-I 0 W/m 16,1 km/h (3 Bft)
28.01.2010 05:50 1,3 C 93 % 1003,3 hPa 0,0 mm 4,8 km/h (1 Bft) W-SW 247 0 min 0 UV-I 0 W/m 11,3 km/h (2 Bft)
28.01.2010 06:00 1,3 C 93 % 1003,4 hPa 0,0 mm 4,8 km/h (1 Bft) W 270 0 min 0 UV-I 0 W/m 14,5 km/h (3 Bft)
28.01.2010 06:10 1,3 C 93 % 1003,2 hPa 0,0 mm 6,4 km/h (2 Bft) W 270 0 min 0 UV-I 0 W/m 17,7 km/h (3 Bft)
28.01.2010 06:20 1,3 C 93 % 1003,0 hPa 0,0 mm 8,0 km/h (2 Bft) W 270 0 min 0 UV-I 0 W/m 19,3 km/h (3 Bft)
28.01.2010 06:30 1,3 C 93 % 1003,1 hPa 0,0 mm 8,0 km/h (2 Bft) W 270 0 min 0 UV-I 0 W/m 20,9 km/h (4 Bft)
28.01.2010 06:40 1,3 C 93 % 1003,0 hPa 0,0 mm 8,0 km/h (2 Bft) W 270 0 min 0 UV-I 0 W/m 20,9 km/h (4 Bft)
28.01.2010 06:50 1,3 C 93 % 1003,1 hPa 0,3 mm 8,0 km/h (2 Bft) W 270 0 min 0 UV-I 0 W/m 20,9 km/h (4 Bft)
28.01.2010 07:00 1,3 C 93 % 1003,0 hPa 0,0 mm 6,4 km/h (2 Bft) W 270 0 min 0 UV-I 0 W/m 22,5 km/h (4 Bft)
28.01.2010 07:10 1,3 C 92 % 1003,2 hPa 0,0 mm 6,4 km/h (2 Bft) W 270 0 min 0 UV-I 0 W/m 19,3 km/h (3 Bft)
28.01.2010 07:20 1,3 C 92 % 1003,2 hPa 0,0 mm 6,4 km/h (2 Bft) W 270 0 min 0 UV-I 0 W/m 20,9 km/h (4 Bft)
28.01.2010 07:30 1,3 C 92 % 1003,3 hPa 0,0 mm 4,8 km/h (1 Bft) W 270 0 min 0 UV-I 0 W/m 16,1 km/h (3 Bft)
28.01.2010 07:40 1,3 C 92 % 1003,3 hPa 0,0 mm 4,8 km/h (1 Bft) W 270 0 min 0 UV-I 0 W/m 11,3 km/h (2 Bft)
28.01.2010 07:50 1,3 C 92 % 1003,3 hPa 0,3 mm 4,8 km/h (1 Bft) W 270 0 min 0 UV-I 0 W/m 19,3 km/h (3 Bft)
28.01.2010 08:00 1,3 C 92 % 1003,4 hPa 0,0 mm 4,8 km/h (1 Bft) W 279 0 min 0 UV-I 0 W/m 8,0 km/h (2 Bft)
28.01.2010 08:10 1,3 C 92 % 1003,5 hPa 0,0 mm 4,8 km/h (1 Bft) W-NW 292 0 min 0 UV-I 0 W/m 19,3 km/h (3 Bft)
28.01.2010 08:20 1,3 C 92 % 1003,4 hPa 0,0 mm 4,8 km/h (1 Bft) W 270 0 min 0 UV-I 0 W/m 20,9 km/h (4 Bft)
28.01.2010 08:30 1,4 C 92 % 1003,2 hPa 0,0 mm 4,8 km/h (1 Bft) W 270 0 min 0 UV-I 7 W/m 17,7 km/h (3 Bft)
28.01.2010 08:40 1,4 C 91 % 1003,2 hPa 0,0 mm 4,8 km/h (1 Bft) W 270 0 min 0 UV-I 5 W/m 19,3 km/h (3 Bft)
28.01.2010 08:50 1,3 C 91 % 1003,1 hPa 0,3 mm 4,8 km/h (1 Bft) W 270 0 min 0 UV-I 11 W/m 14,5 km/h (3 Bft)
28.01.2010 09:00 1,3 C 91 % 1003,2 hPa 0,0 mm 4,8 km/h (1 Bft) W 270 0 min 0 UV-I 9 W/m 16,1 km/h (3 Bft)
28.01.2010 09:10 1,3 C 91 % 1003,3 hPa 0,0 mm 6,4 km/h (2 Bft) W 270 0 min 0 UV-I 12 W/m 22,5 km/h (4 Bft)
28.01.2010 09:20 1,3 C 91 % 1003,3 hPa 0,3 mm 6,4 km/h (2 Bft) W 270 0 min 0 UV-I 39 W/m 17,7 km/h (3 Bft)
28.01.2010 09:30 1,3 C 91 % 1003,2 hPa 0,0 mm 8,0 km/h (2 Bft) W 270 0 min 0 UV-I 77 W/m 24,1 km/h (4 Bft)
28.01.2010 09:40 1,4 C 91 % 1003,3 hPa 0,0 mm 4,8 km/h (1 Bft) W 270 0 min 0 UV-I 56 W/m 17,7 km/h (3 Bft)
28.01.2010 09:50 1,5 C 91 % 1003,3 hPa 0,0 mm 8,0 km/h (2 Bft) W 270 0 min 0 UV-I 35 W/m 22,5 km/h (4 Bft)
28.01.2010 10:00 1,5 C 91 % 1003,3 hPa 0,0 mm 8,0 km/h (2 Bft) W 270 0 min 0 UV-I 30 W/m 17,7 km/h (3 Bft)
28.01.2010 10:10 1,5 C 91 % 1003,3 hPa 0,3 mm 8,0 km/h (2 Bft) W-SW 247 0 min 0 UV-I 40 W/m 20,9 km/h (4 Bft)
28.01.2010 10:20 1,5 C 90 % 1003,1 hPa 0,0 mm 8,0 km/h (2 Bft) W 270 0 min 0 UV-I 47 W/m 22,5 km/h (4 Bft)
28.01.2010 10:30 1,6 C 90 % 1003,1 hPa 0,0 mm 8,0 km/h (2 Bft) W 270 0 min 0 UV-I 65 W/m 22,5 km/h (4 Bft)
28.01.2010 10:40 1,6 C 91 % 1003,0 hPa 0,0 mm 8,0 km/h (2 Bft) W 270 10 min 1 UV-I 167 W/m 20,9 km/h (4 Bft)
28.01.2010 10:50 1,8 C 90 % 1003,0 hPa 0,3 mm 6,4 km/h (2 Bft) W 270 10 min 1 UV-I 246 W/m 19,3 km/h (3 Bft)
28.01.2010 11:00 1,8 C 90 % 1003,0 hPa 0,0 mm 8,0 km/h (2 Bft) W 270 0 min 1 UV-I 100 W/m 24,1 km/h (4 Bft)
28.01.2010 11:10 1,8 C 90 % 1003,0 hPa 0,0 mm 9,7 km/h (2 Bft) W 270 0 min 1 UV-I 79 W/m 22,5 km/h (4 Bft)
28.01.2010 11:20 1,9 C 90 % 1003,0 hPa 0,3 mm 9,7 km/h (2 Bft) W 270 0 min 1 UV-I 163 W/m 20,9 km/h (4 Bft)
28.01.2010 11:30 2,0 C 90 % 1003,0 hPa 0,0 mm 9,7 km/h (2 Bft) W 270 0 min 1 UV-I 167 W/m 25,7 km/h (4 Bft)
28.01.2010 11:40 2,0 C 89 % 1002,8 hPa 0,0 mm 8,0 km/h (2 Bft) W 270 0 min 1 UV-I 81 W/m 22,5 km/h (4 Bft)
28.01.2010 11:50 1,9 C 89 % 1002,8 hPa 0,3 mm 9,7 km/h (2 Bft) W 270 0 min 1 UV-I 141 W/m 27,4 km/h (4 Bft)
28.01.2010 12:00 1,9 C 89 % 1002,5 hPa 0,0 mm 8,0 km/h (2 Bft) W 270 0 min 1 UV-I 176 W/m 24,1 km/h (4 Bft)
28.01.2010 12:10 1,9 C 89 % 1002,4 hPa 0,0 mm 8,0 km/h (2 Bft) W 270 0 min 1 UV-I 144 W/m 19,3 km/h (3 Bft)
28.01.2010 12:20 1,9 C 89 % 1002,4 hPa 0,3 mm 8,0 km/h (2 Bft) W 270 0 min 1 UV-I 97 W/m 19,3 km/h (3 Bft)
28.01.2010 12:30 1,8 C 89 % 1002,3 hPa 0,0 mm 8,0 km/h (2 Bft) W 270 0 min 1 UV-I 156 W/m 22,5 km/h (4 Bft)
28.01.2010 12:40 1,9 C 89 % 1002,1 hPa 0,0 mm 8,0 km/h (2 Bft) W 270 0 min 1 UV-I 158 W/m 20,9 km/h (4 Bft)
28.01.2010 12:50 1,8 C 90 % 1002,0 hPa 0,3 mm 9,7 km/h (2 Bft) W 270 0 min 1 UV-I 98 W/m 27,4 km/h (4 Bft)
28.01.2010 13:00 1,8 C 90 % 1001,8 hPa 0,0 mm 9,7 km/h (2 Bft) W 270 10 min 1 UV-I 246 W/m 20,9 km/h (4 Bft)
28.01.2010 13:10 1,8 C 90 % 1001,6 hPa 0,0 mm 11,3 km/h (2 Bft) W 270 10 min 1 UV-I 232 W/m 27,4 km/h (4 Bft)
28.01.2010 13:20 1,9 C 90 % 1001,4 hPa 0,0 mm 8,0 km/h (2 Bft) W 270 0 min 1 UV-I 102 W/m 22,5 km/h (4 Bft)
28.01.2010 13:30 1,9 C 90 % 1001,4 hPa 0,0 mm 8,0 km/h (2 Bft) W 270 0 min 1 UV-I 128 W/m 20,9 km/h (4 Bft)
28.01.2010 13:40 2,0 C 89 % 1001,3 hPa 0,3 mm 9,7 km/h (2 Bft) W 270 0 min 1 UV-I 123 W/m 24,1 km/h (4 Bft)
28.01.2010 13:50 1,9 C 89 % 1001,2 hPa 0,3 mm 9,7 km/h (2 Bft) W 270 0 min 0 UV-I 65 W/m 32,2 km/h (5 Bft)
28.01.2010 14:00 1,7 C 89 % 1001,0 hPa 0,0 mm 9,7 km/h (2 Bft) W 270 0 min 1 UV-I 130 W/m 24,1 km/h (4 Bft)
28.01.2010 14:10 1,5 C 89 % 1001,0 hPa 0,0 mm 6,4 km/h (2 Bft) W 270 0 min 0 UV-I 54 W/m 19,3 km/h (3 Bft)
28.01.2010 14:20 1,3 C 89 % 1000,9 hPa 0,3 mm 4,8 km/h (1 Bft) W 270 0 min 1 UV-I 107 W/m 14,5 km/h (3 Bft)
28.01.2010 14:30 1,3 C 89 % 1000,7 hPa 0,0 mm 4,8 km/h (1 Bft) W 270 0 min 0 UV-I 88 W/m 17,7 km/h (3 Bft)
28.01.2010 14:40 1,3 C 90 % 1000,7 hPa 0,0 mm 3,2 km/h (1 Bft) W 270 0 min 0 UV-I 44 W/m 11,3 km/h (2 Bft)
28.01.2010 14:50 1,3 C 90 % 1000,5 hPa 0,0 mm 4,8 km/h (1 Bft) W 270 0 min 1 UV-I 95 W/m 17,7 km/h (3 Bft)
28.01.2010 15:00 1,4 C 90 % 1000,4 hPa 0,3 mm 9,7 km/h (2 Bft) W 270 0 min 1 UV-I 116 W/m 22,5 km/h (4 Bft)
28.01.2010 15:10 1,7 C 90 % 1000,3 hPa 0,0 mm 8,0 km/h (2 Bft) W 270 10 min 1 UV-I 186 W/m 29,0 km/h (5 Bft)
28.01.2010 15:20 1,9 C 90 % 1000,3 hPa 0,0 mm 9,7 km/h (2 Bft) W 270 10 min 1 UV-I 202 W/m 20,9 km/h (4 Bft)
28.01.2010 15:30 1,9 C 89 % 1000,3 hPa 0,3 mm 9,7 km/h (2 Bft) W 270 0 min 0 UV-I 100 W/m 22,5 km/h (4 Bft)
28.01.2010 15:40 1,9 C 89 % 1000,2 hPa 0,0 mm 9,7 km/h (2 Bft) W 270 0 min 0 UV-I 35 W/m 20,9 km/h (4 Bft)
28.01.2010 15:50 1,8 C 89 % 1000,2 hPa 0,0 mm 8,0 km/h (2 Bft) W 270 0 min 0 UV-I 25 W/m 27,4 km/h (4 Bft)
28.01.2010 16:00 1,7 C 89 % 1000,1 hPa 0,0 mm 6,1 km/h (2 Bft) W 265 0 min 0 UV-I 27 W/m 11,3 km/h (2 Bft)
28.01.2010 16:10 1,7 C 89 % 1000,1 hPa 0,0 mm 6,4 km/h (2 Bft) W 270 0 min 0 UV-I 28 W/m 17,7 km/h (3 Bft)
28.01.2010 16:20 1,7 C 89 % 1000,1 hPa 0,0 mm 4,8 km/h (1 Bft) W 270 0 min 0 UV-I 18 W/m 19,3 km/h (3 Bft)
28.01.2010 16:30 1,7 C 89 % 1000,0 hPa 0,0 mm 6,4 km/h (2 Bft) W-SW 247 0 min 0 UV-I 16 W/m 20,9 km/h (4 Bft)
28.01.2010 16:40 1,6 C 89 % 1000,0 hPa 0,3 mm 8,0 km/h (2 Bft) W-SW 247 0 min 0 UV-I 7 W/m 22,5 km/h (4 Bft)
28.01.2010 16:50 1,6 C 89 % 1000,0 hPa 0,0 mm 6,4 km/h (2 Bft) W 270 0 min 0 UV-I 11 W/m 16,1 km/h (3 Bft)
28.01.2010 17:00 1,5 C 89 % 999,9 hPa 0,0 mm 6,4 km/h (2 Bft) W 270 0 min 0 UV-I 7 W/m 19,3 km/h (3 Bft)
28.01.2010 17:10 1,5 C 89 % 1000,0 hPa 0,0 mm 6,4 km/h (2 Bft) W 270 0 min 0 UV-I 0 W/m 17,7 km/h (3 Bft)
28.01.2010 17:20 1,4 C 89 % 999,8 hPa 0,0 mm 8,0 km/h (2 Bft) W 270 0 min 0 UV-I 0 W/m 16,1 km/h (3 Bft)
28.01.2010 17:30 1,3 C 89 % 999,9 hPa 0,0 mm 9,7 km/h (2 Bft) W 270 0 min 0 UV-I 0 W/m 19,3 km/h (3 Bft)
28.01.2010 17:40 1,3 C 89 % 999,9 hPa 0,0 mm 8,0 km/h (2 Bft) W 270 0 min 0 UV-I 0 W/m 19,3 km/h (3 Bft)
28.01.2010 17:50 1,3 C 89 % 999,8 hPa 0,0 mm 6,4 km/h (2 Bft) W 270 0 min 0 UV-I 0 W/m 17,7 km/h (3 Bft)
28.01.2010 18:00 1,3 C 89 % 999,8 hPa 0,0 mm 8,0 km/h (2 Bft) W 270 0 min 0 UV-I 0 W/m 19,3 km/h (3 Bft)
28.01.2010 18:10 1,3 C 89 % 999,7 hPa 0,0 mm 6,4 km/h (2 Bft) W 270 0 min 0 UV-I 0 W/m 20,9 km/h (4 Bft)
28.01.2010 18:20 1,3 C 89 % 999,7 hPa 0,0 mm 6,4 km/h (2 Bft) W 270 0 min 0 UV-I 0 W/m 17,7 km/h (3 Bft)
28.01.2010 18:30 1,2 C 89 % 999,7 hPa 0,0 mm 8,0 km/h (2 Bft) W 270 0 min 0 UV-I 0 W/m 20,9 km/h (4 Bft)
28.01.2010 18:40 1,2 C 89 % 999,5 hPa 0,0 mm 8,0 km/h (2 Bft) W 270 0 min 0 UV-I 0 W/m 19,3 km/h (3 Bft)
28.01.2010 18:50 1,2 C 89 % 999,5 hPa 0,0 mm 6,4 km/h (2 Bft) W-NW 292 0 min 0 UV-I 0 W/m 19,3 km/h (3 Bft)
28.01.2010 19:00 1,2 C 89 % 999,5 hPa 0,0 mm 8,0 km/h (2 Bft) W 270 0 min 0 UV-I 0 W/m 16,1 km/h (3 Bft)
28.01.2010 19:10 1,2 C 88 % 999,5 hPa 0,0 mm 8,0 km/h (2 Bft) W 270 0 min 0 UV-I 0 W/m 25,7 km/h (4 Bft)
28.01.2010 19:20 1,2 C 88 % 999,5 hPa 0,0 mm 6,4 km/h (2 Bft) W 270 0 min 0 UV-I 0 W/m 19,3 km/h (3 Bft)
28.01.2010 19:30 1,2 C 88 % 999,4 hPa 0,0 mm 6,4 km/h (2 Bft) W 270 0 min 0 UV-I 0 W/m 22,5 km/h (4 Bft)
28.01.2010 19:40 1,2 C 88 % 999,3 hPa 0,0 mm 6,4 km/h (2 Bft) W 270 0 min 0 UV-I 0 W/m 19,3 km/h (3 Bft)
28.01.2010 19:50 1,2 C 88 % 999,4 hPa 0,0 mm 8,0 km/h (2 Bft) W 270 0 min 0 UV-I 0 W/m 22,5 km/h (4 Bft)
28.01.2010 20:00 1,2 C 88 % 999,2 hPa 0,0 mm 6,4 km/h (2 Bft) W-SW 247 0 min 0 UV-I 0 W/m 19,3 km/h (3 Bft)
28.01.2010 20:10 1,2 C 88 % 999,1 hPa 0,0 mm 8,0 km/h (2 Bft) W 270 0 min 0 UV-I 0 W/m 20,9 km/h (4 Bft)
28.01.2010 20:20 1,1 C 88 % 999,0 hPa 0,0 mm 6,4 km/h (2 Bft) W 270 0 min 0 UV-I 0 W/m 19,3 km/h (3 Bft)
28.01.2010 20:30 1,1 C 88 % 999,0 hPa 0,0 mm 6,4 km/h (2 Bft) W 270 0 min 0 UV-I 0 W/m 24,1 km/h (4 Bft)
28.01.2010 20:40 1,1 C 88 % 999,0 hPa 0,0 mm 6,4 km/h (2 Bft) W 270 0 min 0 UV-I 0 W/m 19,3 km/h (3 Bft)
28.01.2010 20:50 1,1 C 88 % 998,9 hPa 0,0 mm 8,0 km/h (2 Bft) W 270 0 min 0 UV-I 0 W/m 22,5 km/h (4 Bft)
28.01.2010 21:00 1,1 C 88 % 999,0 hPa 0,0 mm 6,4 km/h (2 Bft) W 270 0 min 0 UV-I 0 W/m 20,9 km/h (4 Bft)
28.01.2010 21:10 1,1 C 89 % 998,9 hPa 0,0 mm 9,7 km/h (2 Bft) W 270 0 min 0 UV-I 0 W/m 24,1 km/h (4 Bft)
28.01.2010 21:20 1,1 C 89 % 998,9 hPa 0,0 mm 4,8 km/h (1 Bft) W 270 0 min 0 UV-I 0 W/m 17,7 km/h (3 Bft)
28.01.2010 21:30 1,1 C 89 % 998,9 hPa 0,0 mm 6,4 km/h (2 Bft) W-SW 247 0 min 0 UV-I 0 W/m 24,1 km/h (4 Bft)
28.01.2010 21:40 1,0 C 89 % 998,8 hPa 0,0 mm 6,4 km/h (2 Bft) W 270 0 min 0 UV-I 0 W/m 17,7 km/h (3 Bft)
28.01.2010 21:50 1,0 C 89 % 998,7 hPa 0,0 mm 6,4 km/h (2 Bft) W 270 0 min 0 UV-I 0 W/m 16,1 km/h (3 Bft)
28.01.2010 22:00 0,9 C 89 % 998,7 hPa 0,0 mm 4,8 km/h (1 Bft) W 270 0 min 0 UV-I 0 W/m 17,7 km/h (3 Bft)
28.01.2010 22:10 0,9 C 89 % 998,5 hPa 0,0 mm 6,4 km/h (2 Bft) W 270 0 min 0 UV-I 0 W/m 19,3 km/h (3 Bft)
28.01.2010 22:20 0,9 C 89 % 998,4 hPa 0,0 mm 6,4 km/h (2 Bft) W 270 0 min 0 UV-I 0 W/m 19,3 km/h (3 Bft)
28.01.2010 22:30 0,9 C 89 % 998,4 hPa 0,0 mm 4,8 km/h (1 Bft) W 270 0 min 0 UV-I 0 W/m 11,3 km/h (2 Bft)
28.01.2010 22:40 0,9 C 89 % 998,3 hPa 0,0 mm 4,8 km/h (1 Bft) W 270 0 min 0 UV-I 0 W/m 17,7 km/h (3 Bft)
28.01.2010 22:50 0,9 C 89 % 998,1 hPa 0,0 mm 6,4 km/h (2 Bft) W 270 0 min 0 UV-I 0 W/m 19,3 km/h (3 Bft)
28.01.2010 23:00 0,9 C 89 % 998,1 hPa 0,3 mm 6,4 km/h (2 Bft) W 270 0 min 0 UV-I 0 W/m 17,7 km/h (3 Bft)
28.01.2010 23:10 0,9 C 89 % 998,0 hPa 0,0 mm 6,4 km/h (2 Bft) W 270 0 min 0 UV-I 0 W/m 19,3 km/h (3 Bft)
28.01.2010 23:20 0,9 C 89 % 997,8 hPa 0,0 mm 8,0 km/h (2 Bft) W-SW 247 0 min 0 UV-I 0 W/m 27,4 km/h (4 Bft)
28.01.2010 23:30 0,9 C 89 % 997,7 hPa 0,0 mm 8,0 km/h (2 Bft) W 270 0 min 0 UV-I 0 W/m 22,5 km/h (4 Bft)
28.01.2010 23:40 0,9 C 89 % 997,6 hPa 0,0 mm 8,0 km/h (2 Bft) W 270 0 min 0 UV-I 0 W/m 20,9 km/h (4 Bft)
28.01.2010 23:50 0,9 C 89 % 997,6 hPa 0,0 mm 8,0 km/h (2 Bft) W 270 0 min 0 UV-I 0 W/m 19,3 km/h (3 Bft)
_ Min-Zeit 00:00 19:10 23:40 - 04:30 - - - - - 08:00
Minimum _ -0,6 C 88 % 997,6 hPa - 3,2 km/h (1 Bft) - - - - - 8,0 km/h (2 Bft)
_ Max-Zeit 11:30 03:10 00:00 04:00 00:20 - - 10:40 13:10 10:50 00:50
Maximum _ 2,0 C 93 % 1005,4 hPa 0,3 mm 14,5 km/h
W (3 Bft)
- - 10 min 1 UV-I 246 W/m 35,4 km/h
W (5 Bft)
Durchschnitt _ 1,2 C 90 % 1001,6 hPa #5,6 mm 7,5 km/h (2 Bft) W - #1:00 h 1 UV-I 88 W/m 20,8 km/h (4 Bft)